Time;durP1;ratioP1;P1;durP2;ratioP2;P2;SDS_P1;SDS_P2;PMS_P1;PMS_P2;Temp;Humidity;BMP_temperature;BMP_pressure;BME280_temperature;BME280_humidity;BME280_pressure;Samples;Min_cycle;Max_cycle;Signal;HPM_P1;HPM_P2
2024/03/14 00:00:05;;;;;;;10.93;9.35;;;10.90;99.90;;;;;;7379446;19;20033;-67
2024/03/14 00:02:40;;;;;;;12.33;8.50;;;10.90;99.90;;;;;;7386632;19;20493;-67
2024/03/14 00:05:08;;;;;;;12.25;8.75;;;10.80;99.90;;;;;;7385489;19;20489;-67
2024/03/14 00:07:37;;;;;;;11.20;8.75;;;10.80;99.90;;;;;;7387140;19;20027;-66
2024/03/14 00:10:06;;;;;;;10.63;9.50;;;10.90;99.90;;;;;;7386979;19;20022;-65
2024/03/14 00:12:33;;;;;;;12.05;9.18;;;10.80;99.90;;;;;;7383910;19;20452;-66
2024/03/14 00:14:59;;;;;;;12.52;10.23;;;10.80;99.90;;;;;;7383844;19;20518;-66
2024/03/14 00:17:26;;;;;;;10.68;9.57;;;10.80;99.90;;;;;;7381184;19;20025;-66
2024/03/14 00:19:53;;;;;;;11.80;9.85;;;10.80;99.90;;;;;;7383999;19;20756;-66
2024/03/14 00:22:19;;;;;;;12.10;10.85;;;10.80;99.90;;;;;;7379832;19;20017;-66
2024/03/14 00:24:45;;;;;;;11.82;10.60;;;10.80;99.90;;;;;;7383439;19;20577;-66
2024/03/14 00:27:13;;;;;;;13.07;10.52;;;10.80;99.90;;;;;;7381157;19;20082;-66
2024/03/14 00:29:41;;;;;;;11.40;9.20;;;10.80;99.90;;;;;;7383840;19;20029;-66
2024/03/14 00:32:07;;;;;;;12.68;11.00;;;10.80;99.90;;;;;;7383806;19;20018;-66
2024/03/14 00:34:36;;;;;;;11.98;10.68;;;10.80;99.90;;;;;;7381169;19;20026;-66
2024/03/14 00:37:02;;;;;;;14.60;11.93;;;10.80;99.90;;;;;;7378349;19;20018;-64
2024/03/14 00:39:29;;;;;;;11.80;10.45;;;10.80;99.90;;;;;;7368976;19;20102;-64
2024/03/14 00:41:55;;;;;;;13.93;11.45;;;10.70;99.90;;;;;;7373009;19;20894;-65
2024/03/14 00:44:22;;;;;;;13.18;10.90;;;10.70;99.90;;;;;;7370705;19;20015;-64
2024/03/14 00:46:51;;;;;;;14.60;11.82;;;10.70;99.90;;;;;;7368745;19;20074;-64
2024/03/14 00:49:17;;;;;;;14.13;11.77;;;10.70;99.90;;;;;;7369216;19;20025;-64
2024/03/14 00:51:44;;;;;;;13.02;11.65;;;10.70;99.90;;;;;;7371276;19;20058;-64
2024/03/14 00:54:10;;;;;;;13.45;12.05;;;10.70;99.90;;;;;;7368841;19;20026;-64
2024/03/14 00:56:37;;;;;;;14.80;11.90;;;10.70;99.90;;;;;;7368214;19;20388;-64
2024/03/14 00:59:03;;;;;;;13.98;12.52;;;10.70;99.90;;;;;;7366816;19;20026;-64
2024/03/14 01:01:30;;;;;;;14.30;12.80;;;10.70;99.90;;;;;;7376104;19;20033;-66
2024/03/14 01:03:56;;;;;;;15.63;12.80;;;10.70;99.90;;;;;;7375335;19;20018;-66
2024/03/14 01:06:24;;;;;;;14.50;13.00;;;10.70;99.90;;;;;;7379152;19;20025;-66
2024/03/14 01:08:50;;;;;;;14.73;13.25;;;10.70;99.90;;;;;;7377541;19;20014;-67
2024/03/14 01:11:20;;;;;;;14.23;12.45;;;10.70;99.90;;;;;;7375456;19;20018;-66
2024/03/14 01:13:46;;;;;;;16.17;13.65;;;10.70;99.90;;;;;;7375153;19;20022;-66
2024/03/14 01:16:13;;;;;;;16.13;13.68;;;10.70;99.90;;;;;;7378615;19;20014;-66
2024/03/14 01:18:40;;;;;;;15.10;13.52;;;10.70;99.90;;;;;;7371511;19;20772;-66
2024/03/14 01:21:08;;;;;;;16.42;14.73;;;10.60;99.90;;;;;;7377264;19;20018;-66
2024/03/14 01:23:37;;;;;;;15.90;14.30;;;10.60;99.90;;;;;;7374079;19;20372;-66
2024/03/14 01:26:03;;;;;;;16.83;14.27;;;10.60;99.90;;;;;;7377906;19;20031;-66
2024/03/14 01:28:30;;;;;;;16.25;14.55;;;10.50;99.90;;;;;;7361864;19;20927;-64
2024/03/14 01:30:58;;;;;;;16.58;14.85;;;10.50;99.90;;;;;;7365142;19;20834;-65
2024/03/14 01:33:25;;;;;;;17.10;15.07;;;10.40;99.90;;;;;;7364119;19;20023;-64
2024/03/14 01:35:54;;;;;;;16.88;15.07;;;10.40;99.90;;;;;;7369432;19;20481;-64
2024/03/14 01:38:21;;;;;;;17.02;14.82;;;10.30;99.90;;;;;;7372800;19;20014;-66
2024/03/14 01:40:48;;;;;;;20.08;15.02;;;10.30;99.90;;;;;;7377057;19;20121;-65
2024/03/14 01:43:14;;;;;;;18.23;16.33;;;10.20;99.90;;;;;;7368268;19;20023;-64
2024/03/14 01:45:42;;;;;;;19.83;15.73;;;10.20;99.90;;;;;;7374988;19;20019;-66
2024/03/14 01:48:10;;;;;;;17.73;15.75;;;10.20;99.90;;;;;;7378506;19;20547;-66
2024/03/14 01:50:36;;;;;;;18.45;15.75;;;10.20;99.90;;;;;;7379588;19;20038;-65
2024/03/14 01:53:05;;;;;;;19.65;16.45;;;10.20;99.90;;;;;;7380485;19;20839;-67
2024/03/14 01:55:32;;;;;;;20.17;16.58;;;10.10;99.90;;;;;;7379952;19;20072;-66
2024/03/14 01:57:59;;;;;;;18.95;16.80;;;10.10;99.90;;;;;;7378577;19;20024;-66
2024/03/14 02:00:34;;;;;;;17.63;15.82;;;10.10;99.90;;;;;;7377264;19;21113;-66
2024/03/14 02:03:02;;;;;;;20.40;17.17;;;10.10;99.90;;;;;;7379767;19;20015;-66
2024/03/14 02:05:45;;;;;;;18.92;17.00;;;10.10;99.90;;;;;;7374679;19;20082;-66
2024/03/14 02:08:12;;;;;;;18.08;15.10;;;10.10;99.90;;;;;;7375650;19;20518;-66
2024/03/14 02:10:39;;;;;;;18.98;16.67;;;10.10;99.90;;;;;;7372419;19;20019;-66
2024/03/14 02:13:05;;;;;;;18.85;16.10;;;10.10;99.90;;;;;;7379813;19;20019;-66
2024/03/14 02:15:31;;;;;;;20.02;17.92;;;10.00;99.90;;;;;;7375569;19;21395;-66
2024/03/14 02:17:57;;;;;;;20.38;17.95;;;9.90;99.90;;;;;;7376298;19;20482;-65
2024/03/14 02:20:24;;;;;;;22.48;17.10;;;9.90;99.90;;;;;;7376703;19;20466;-66
2024/03/14 02:22:50;;;;;;;21.08;18.13;;;9.90;99.90;;;;;;7377465;19;20022;-66
2024/03/14 02:25:17;;;;;;;20.25;18.08;;;9.90;99.90;;;;;;7379734;19;20119;-66
2024/03/14 02:27:44;;;;;;;19.05;17.05;;;9.80;99.90;;;;;;7376794;19;20027;-65
2024/03/14 02:30:11;;;;;;;19.27;17.20;;;9.80;99.90;;;;;;7369904;19;20027;-65
2024/03/14 02:32:37;;;;;;;19.73;17.33;;;9.80;99.90;;;;;;7369551;19;20018;-66
2024/03/14 02:35:04;;;;;;;19.63;17.08;;;9.70;99.90;;;;;;7378192;19;20018;-65
2024/03/14 02:37:32;;;;;;;21.35;17.50;;;9.70;99.90;;;;;;7372100;19;20015;-66
2024/03/14 02:39:58;;;;;;;19.45;17.40;;;9.60;99.90;;;;;;7367894;19;20018;-67
2024/03/14 02:42:24;;;;;;;19.50;17.15;;;9.70;99.90;;;;;;7365971;19;20485;-65
2024/03/14 02:44:51;;;;;;;20.13;18.05;;;9.60;99.90;;;;;;7367159;19;20078;-66
2024/03/14 02:47:17;;;;;;;21.90;18.15;;;9.60;99.90;;;;;;7367951;19;20035;-65
2024/03/14 02:49:44;;;;;;;20.88;18.48;;;9.60;99.90;;;;;;7376580;19;20518;-66
2024/03/14 02:52:11;;;;;;;20.55;16.73;;;9.60;99.90;;;;;;7385026;19;20466;-66
2024/03/14 02:54:37;;;;;;;20.30;17.58;;;9.60;99.90;;;;;;7386516;19;20086;-66
2024/03/14 02:57:04;;;;;;;20.58;17.50;;;9.60;99.90;;;;;;7382997;19;20026;-66
2024/03/14 02:59:31;;;;;;;20.65;17.90;;;9.50;99.90;;;;;;7380841;19;20463;-66
2024/03/14 03:01:58;;;;;;;20.80;17.75;;;9.50;99.90;;;;;;7383583;19;20081;-66
2024/03/14 03:04:24;;;;;;;21.25;18.25;;;9.50;99.90;;;;;;7385593;19;20263;-65
2024/03/14 03:06:54;;;;;;;21.77;17.60;;;9.50;99.90;;;;;;7365167;19;20026;-64
2024/03/14 03:09:21;;;;;;;21.23;17.58;;;9.50;99.90;;;;;;7367167;19;20030;-64
2024/03/14 03:11:48;;;;;;;20.73;17.95;;;9.40;99.90;;;;;;7373132;19;21846;-66
2024/03/14 03:14:16;;;;;;;22.67;18.83;;;9.40;99.90;;;;;;7382685;19;21316;-67
2024/03/14 03:16:44;;;;;;;20.80;18.60;;;9.40;99.90;;;;;;7383786;19;20018;-65
2024/03/14 03:19:10;;;;;;;21.25;17.52;;;9.40;99.90;;;;;;7369348;19;20021;-65
2024/03/14 03:21:40;;;;;;;22.27;18.98;;;9.40;99.90;;;;;;7371543;19;20014;-65
2024/03/14 03:24:11;;;;;;;22.63;19.00;;;9.40;99.90;;;;;;7370485;19;20019;-65
2024/03/14 03:26:40;;;;;;;21.33;18.20;;;9.40;99.90;;;;;;7368760;19;20018;-65
2024/03/14 03:29:07;;;;;;;20.25;17.80;;;9.40;99.90;;;;;;7370986;19;20019;-65
2024/03/14 03:31:34;;;;;;;22.08;18.02;;;9.40;99.90;;;;;;7383127;19;20011;-67
2024/03/14 03:34:01;;;;;;;19.80;17.65;;;9.40;99.90;;;;;;7384957;19;20014;-67
2024/03/14 03:36:29;;;;;;;21.70;18.63;;;9.40;99.90;;;;;;7370726;19;20022;-64
2024/03/14 03:38:56;;;;;;;21.25;18.15;;;9.40;99.90;;;;;;7369271;19;20537;-64
2024/03/14 03:41:23;;;;;;;20.98;17.85;;;9.40;99.90;;;;;;7369525;19;20025;-64
2024/03/14 03:43:52;;;;;;;22.92;18.23;;;9.40;99.90;;;;;;7373170;19;20033;-66
2024/03/14 03:46:19;;;;;;;21.20;17.75;;;9.40;99.90;;;;;;7373429;19;20029;-65
2024/03/14 03:48:45;;;;;;;19.48;17.45;;;9.40;99.90;;;;;;7371897;19;20789;-65
2024/03/14 03:51:13;;;;;;;19.73;17.63;;;9.40;99.90;;;;;;7371938;19;20027;-67
2024/03/14 03:53:39;;;;;;;20.38;17.77;;;9.40;99.90;;;;;;7372286;19;20041;-66
2024/03/14 03:56:05;;;;;;;18.85;15.90;;;9.30;99.90;;;;;;7383663;19;20781;-66
2024/03/14 03:58:35;;;;;;;18.98;16.65;;;9.30;99.90;;;;;;7376893;19;20037;-66
2024/03/14 04:01:10;;;;;;;21.85;16.98;;;9.30;99.90;;;;;;7378500;19;20025;-65
2024/03/14 04:03:40;;;;;;;19.48;16.85;;;9.30;99.90;;;;;;7370513;19;20027;-65
2024/03/14 04:06:10;;;;;;;19.08;17.08;;;9.30;99.90;;;;;;7369586;19;20022;-65
2024/03/14 04:08:39;;;;;;;18.80;16.17;;;9.30;99.90;;;;;;7368337;19;20051;-64
2024/03/14 04:11:07;;;;;;;20.92;17.23;;;9.30;99.90;;;;;;7369007;19;20486;-66
2024/03/14 04:13:33;;;;;;;19.00;15.73;;;9.20;99.90;;;;;;7365617;19;20494;-65
2024/03/14 04:16:05;;;;;;;19.02;17.00;;;9.10;99.90;;;;;;7371482;19;20018;-65
2024/03/14 04:18:32;;;;;;;18.23;16.33;;;9.10;99.90;;;;;;7379909;19;20026;-66
2024/03/14 04:21:07;;;;;;;18.98;16.27;;;9.10;99.90;;;;;;7383901;19;20458;-66
2024/03/14 04:23:35;;;;;;;18.50;16.60;;;9.00;99.90;;;;;;7382546;19;20018;-66
2024/03/14 04:26:02;;;;;;;17.95;15.88;;;9.00;99.90;;;;;;7380978;19;20014;-66
2024/03/14 04:28:28;;;;;;;19.20;17.23;;;8.90;99.90;;;;;;7376817;19;20018;-64
2024/03/14 04:30:55;;;;;;;19.15;16.90;;;8.90;99.90;;;;;;7369998;19;20763;-65
2024/03/14 04:33:22;;;;;;;18.92;16.58;;;8.90;99.90;;;;;;7368330;19;20834;-65
2024/03/14 04:35:48;;;;;;;18.00;16.10;;;8.80;99.90;;;;;;7367579;19;20029;-65
2024/03/14 04:38:14;;;;;;;19.42;17.10;;;8.80;99.90;;;;;;7366839;19;20029;-64
2024/03/14 04:40:40;;;;;;;17.98;16.15;;;8.80;99.90;;;;;;7366673;19;20513;-65
2024/03/14 04:43:09;;;;;;;19.33;17.10;;;8.70;99.90;;;;;;7384075;19;20459;-66
2024/03/14 04:45:36;;;;;;;17.92;16.13;;;8.70;99.90;;;;;;7382426;19;20024;-66
2024/03/14 04:48:05;;;;;;;18.63;16.73;;;8.70;99.90;;;;;;7385356;19;20506;-66
2024/03/14 04:50:31;;;;;;;19.52;17.38;;;8.70;99.90;;;;;;7382172;19;20572;-66
2024/03/14 04:52:58;;;;;;;18.75;16.75;;;8.60;99.90;;;;;;7384021;19;20090;-66
2024/03/14 04:55:24;;;;;;;19.55;17.55;;;8.70;99.90;;;;;;7370330;19;20022;-65
2024/03/14 04:57:50;;;;;;;19.75;17.55;;;8.70;99.90;;;;;;7366890;19;20031;-65
2024/03/14 05:00:20;;;;;;;19.02;17.02;;;8.70;99.90;;;;;;7379091;19;20022;-66
2024/03/14 05:02:51;;;;;;;20.20;17.85;;;8.70;99.90;;;;;;7383760;19;20067;-66
2024/03/14 05:05:21;;;;;;;19.75;17.75;;;8.60;99.90;;;;;;7384326;19;20037;-66
2024/03/14 05:07:48;;;;;;;19.95;17.25;;;8.60;99.90;;;;;;7381731;19;20023;-66
2024/03/14 05:10:21;;;;;;;19.13;17.15;;;8.60;99.90;;;;;;7377114;19;20695;-65
2024/03/14 05:12:47;;;;;;;19.08;17.02;;;8.60;99.90;;;;;;7373107;19;20021;-66
2024/03/14 05:15:14;;;;;;;20.27;18.17;;;8.60;99.90;;;;;;7382484;19;20831;-66
2024/03/14 05:17:41;;;;;;;21.42;18.73;;;8.50;99.90;;;;;;7366603;19;20055;-65
2024/03/14 05:20:10;;;;;;;21.38;18.10;;;8.50;99.90;;;;;;7371489;19;20022;-66
2024/03/14 05:22:38;;;;;;;21.90;18.85;;;8.50;99.90;;;;;;7380127;19;20030;-66
2024/03/14 05:25:09;;;;;;;21.70;19.40;;;8.50;99.90;;;;;;7386694;19;20497;-67
2024/03/14 05:27:35;;;;;;;24.55;19.63;;;8.60;99.90;;;;;;7383027;19;20046;-66
2024/03/14 05:30:01;;;;;;;21.45;19.15;;;8.50;99.90;;;;;;7383090;19;20055;-66
2024/03/14 05:32:28;;;;;;;21.10;18.73;;;8.60;99.90;;;;;;7381625;19;20022;-68
2024/03/14 05:34:57;;;;;;;22.52;18.85;;;8.50;99.90;;;;;;7386615;19;20023;-67
2024/03/14 05:37:26;;;;;;;24.70;20.65;;;8.50;99.90;;;;;;7379306;19;21134;-67
2024/03/14 05:39:53;;;;;;;22.73;19.35;;;8.40;99.90;;;;;;7378714;19;20018;-67
2024/03/14 05:42:22;;;;;;;22.90;20.13;;;8.50;99.90;;;;;;7378583;19;20053;-67
2024/03/14 05:44:48;;;;;;;22.67;19.88;;;8.40;99.90;;;;;;7381440;19;20015;-66
2024/03/14 05:47:18;;;;;;;22.67;20.23;;;8.50;99.90;;;;;;7380710;19;20041;-66
2024/03/14 05:49:44;;;;;;;23.92;21.08;;;8.50;99.90;;;;;;7376543;19;22158;-66
2024/03/14 05:52:11;;;;;;;23.58;20.50;;;8.50;99.90;;;;;;7368489;19;20070;-64
2024/03/14 05:54:39;;;;;;;24.63;21.63;;;8.50;99.90;;;;;;7366125;19;20384;-65
2024/03/14 05:57:05;;;;;;;26.38;22.02;;;8.50;99.90;;;;;;7370802;19;20024;-65
2024/03/14 05:59:31;;;;;;;27.20;22.65;;;8.50;99.90;;;;;;7364597;19;20466;-63
2024/03/14 06:01:58;;;;;;;28.13;23.08;;;8.60;99.90;;;;;;7365356;19;20018;-65
2024/03/14 06:04:24;;;;;;;26.13;23.15;;;8.60;99.90;;;;;;7372516;19;20022;-67
2024/03/14 06:06:50;;;;;;;25.23;22.45;;;8.70;99.90;;;;;;7385063;19;20081;-66
2024/03/14 06:09:17;;;;;;;28.42;23.63;;;8.70;99.90;;;;;;7375509;19;20023;-65
2024/03/14 06:11:44;;;;;;;26.60;22.55;;;8.60;99.90;;;;;;7377765;19;20041;-66
2024/03/14 06:14:10;;;;;;;26.98;23.17;;;8.60;99.90;;;;;;7375461;19;20074;-65
2024/03/14 06:16:37;;;;;;;25.27;22.45;;;8.60;99.90;;;;;;7372162;19;20019;-66
2024/03/14 06:19:03;;;;;;;24.52;21.83;;;8.70;99.90;;;;;;7380553;19;20036;-66
2024/03/14 06:21:29;;;;;;;27.17;23.25;;;8.70;99.90;;;;;;7379243;19;20022;-66
2024/03/14 06:23:56;;;;;;;26.90;23.30;;;8.70;99.90;;;;;;7372095;19;20022;-64
2024/03/14 06:26:22;;;;;;;28.40;23.35;;;8.70;99.90;;;;;;7367374;19;20022;-64
2024/03/14 06:28:48;;;;;;;30.27;23.85;;;8.70;99.90;;;;;;7375268;19;20383;-67
2024/03/14 06:31:15;;;;;;;27.08;22.55;;;8.80;99.90;;;;;;7377338;19;20046;-67
2024/03/14 06:33:42;;;;;;;28.35;24.48;;;8.80;99.90;;;;;;7380642;19;20042;-67
2024/03/14 06:36:08;;;;;;;26.98;23.27;;;8.80;99.90;;;;;;7378608;19;20078;-66
2024/03/14 06:38:38;;;;;;;27.38;24.42;;;8.90;99.90;;;;;;7379864;19;20030;-67
2024/03/14 06:41:04;;;;;;;26.67;23.05;;;8.90;99.90;;;;;;7380193;19;20083;-66
2024/03/14 06:43:30;;;;;;;27.35;22.45;;;9.00;99.90;;;;;;7379398;19;20084;-66
2024/03/14 06:45:56;;;;;;;27.83;23.10;;;9.00;99.90;;;;;;7379262;19;20026;-67
2024/03/14 06:48:22;;;;;;;30.23;23.35;;;9.00;99.90;;;;;;7376809;19;20018;-66
2024/03/14 06:50:49;;;;;;;29.27;24.65;;;9.00;99.90;;;;;;7369517;19;20115;-66
2024/03/14 06:53:16;;;;;;;29.55;22.60;;;9.10;99.90;;;;;;7379804;19;20035;-66
2024/03/14 06:55:43;;;;;;;28.40;24.17;;;9.20;99.90;;;;;;7368392;19;20018;-65
2024/03/14 06:58:11;;;;;;;25.15;22.50;;;9.10;99.90;;;;;;7365332;19;20023;-64
2024/03/14 07:00:40;;;;;;;28.50;23.60;;;9.20;99.90;;;;;;7363078;19;20022;-64
2024/03/14 07:03:07;;;;;;;25.45;22.48;;;9.20;99.90;;;;;;7367838;19;20038;-64
2024/03/14 07:05:37;;;;;;;25.92;23.00;;;9.20;99.90;;;;;;7364112;19;20766;-65
2024/03/14 07:08:05;;;;;;;25.77;23.00;;;9.30;99.90;;;;;;7370381;19;20035;-64
2024/03/14 07:10:31;;;;;;;24.25;21.75;;;9.30;99.90;;;;;;7363694;19;20043;-64
2024/03/14 07:12:57;;;;;;;25.05;22.40;;;9.30;99.90;;;;;;7366770;19;20019;-66
2024/03/14 07:15:23;;;;;;;25.20;22.58;;;9.40;99.90;;;;;;7361807;19;20044;-66
2024/03/14 07:17:58;;;;;;;25.58;22.75;;;9.50;99.90;;;;;;7367420;19;20481;-65
2024/03/14 07:20:33;;;;;;;25.88;22.40;;;9.50;99.90;;;;;;7357897;19;20060;-64
2024/03/14 07:22:59;;;;;;;25.77;22.20;;;9.50;99.90;;;;;;7361382;19;20114;-64
2024/03/14 07:25:26;;;;;;;29.45;20.50;;;9.60;99.90;;;;;;7364331;19;20573;-63
2024/03/14 07:27:52;;;;;;;26.40;21.77;;;9.80;99.90;;;;;;7361263;19;20590;-64
2024/03/14 07:30:22;;;;;;;25.20;21.73;;;9.90;99.90;;;;;;7368755;19;20348;-65
2024/03/14 07:32:48;;;;;;;23.35;20.35;;;9.90;99.90;;;;;;7374670;19;20630;-65
2024/03/14 07:35:21;;;;;;;23.13;20.65;;;10.10;99.90;;;;;;7391416;19;20392;-66
2024/03/14 07:37:47;;;;;;;22.55;20.20;;;10.20;99.90;;;;;;7391109;19;20020;-69
2024/03/14 07:40:16;;;;;;;22.15;19.73;;;10.50;99.90;;;;;;7387166;19;20037;-67
2024/03/14 07:42:44;;;;;;;22.95;18.92;;;10.80;99.90;;;;;;7381961;19;20078;-66
2024/03/14 07:45:17;;;;;;;21.23;17.58;;;11.10;99.90;;;;;;7385942;19;20090;-66
2024/03/14 07:47:52;;;;;;;20.38;17.88;;;11.30;99.90;;;;;;7389687;19;20046;-67
2024/03/14 07:50:19;;;;;;;19.35;17.23;;;11.60;99.90;;;;;;7390045;19;20041;-67
2024/03/14 07:52:45;;;;;;;20.30;17.23;;;12.00;99.90;;;;;;7387479;19;20022;-67
2024/03/14 07:55:16;;;;;;;17.90;16.10;;;12.10;99.90;;;;;;7390266;19;20036;-67
2024/03/14 07:57:43;;;;;;;18.27;16.48;;;11.90;99.90;;;;;;7389468;19;20562;-65
2024/03/14 08:00:14;;;;;;;18.60;16.67;;;11.80;99.90;;;;;;7384718;19;20043;-66
2024/03/14 08:02:42;;;;;;;18.60;16.20;;;11.70;99.90;;;;;;7384079;19;20049;-65
2024/03/14 08:05:08;;;;;;;18.20;16.13;;;11.50;99.90;;;;;;7382074;19;20018;-66
2024/03/14 08:07:37;;;;;;;18.98;16.55;;;11.30;99.90;;;;;;7382249;19;20038;-65
2024/03/14 08:10:05;;;;;;;19.13;16.60;;;11.30;99.90;;;;;;7386095;19;20099;-66
2024/03/14 08:12:34;;;;;;;18.95;16.95;;;11.20;99.90;;;;;;7375457;19;20673;-63
2024/03/14 08:15:16;;;;;;;19.45;17.42;;;11.10;99.90;;;;;;7382472;19;20014;-67
2024/03/14 08:17:46;;;;;;;19.40;17.40;;;11.20;99.90;;;;;;7378682;19;20014;-63
2024/03/14 08:20:15;;;;;;;19.13;17.17;;;11.30;99.90;;;;;;7371677;19;20024;-64
2024/03/14 08:22:42;;;;;;;19.42;16.98;;;11.40;99.90;;;;;;7373776;19;20120;-63
2024/03/14 08:25:15;;;;;;;18.40;16.50;;;11.60;99.90;;;;;;7377085;19;20360;-66
2024/03/14 08:27:46;;;;;;;19.27;17.13;;;11.90;99.90;;;;;;7376495;19;20510;-65
2024/03/14 08:30:13;;;;;;;16.60;14.93;;;12.20;99.90;;;;;;7377793;19;20624;-66
2024/03/14 08:32:40;;;;;;;17.52;15.82;;;12.30;99.90;;;;;;7370479;19;20022;-65
2024/03/14 08:35:07;;;;;;;17.55;15.75;;;12.10;99.90;;;;;;7384745;19;20109;-64
2024/03/14 08:37:35;;;;;;;17.52;15.70;;;12.10;99.90;;;;;;7393670;19;20088;-64
2024/03/14 08:40:05;;;;;;;16.52;14.85;;;12.30;99.90;;;;;;7382923;19;21489;-67
2024/03/14 08:42:33;;;;;;;17.08;14.60;;;12.50;99.90;;;;;;7393221;19;20022;-64
2024/03/14 08:45:00;;;;;;;19.77;15.00;;;12.90;99.90;;;;;;7394731;19;20018;-65
2024/03/14 08:47:32;;;;;;;15.95;13.35;;;13.30;99.90;;;;;;7395794;19;20018;-65
2024/03/14 08:49:59;;;;;;;16.00;14.40;;;13.60;99.90;;;;;;7395673;19;20014;-65
2024/03/14 08:52:28;;;;;;;15.90;14.20;;;13.70;99.90;;;;;;7396707;19;20025;-66
2024/03/14 08:54:54;;;;;;;15.45;13.88;;;14.10;99.90;;;;;;7393854;19;20007;-66
2024/03/14 08:57:25;;;;;;;13.90;12.52;;;14.20;99.90;;;;;;7373153;19;20023;-65
2024/03/14 08:59:55;;;;;;;14.30;12.80;;;14.30;99.90;;;;;;7371048;19;20720;-64
2024/03/14 09:02:22;;;;;;;14.52;13.02;;;14.10;99.90;;;;;;7369955;19;20018;-68
2024/03/14 09:04:50;;;;;;;14.07;12.60;;;14.00;99.90;;;;;;7378718;19;20086;-69
2024/03/14 09:07:17;;;;;;;14.18;12.77;;;13.90;99.90;;;;;;7375348;19;20018;-66
2024/03/14 09:09:44;;;;;;;13.70;12.30;;;14.00;99.90;;;;;;7373333;19;20010;-69
2024/03/14 09:12:24;;;;;;;13.93;12.63;;;14.20;99.90;;;;;;7371249;19;20018;-67
2024/03/14 09:14:51;;;;;;;13.63;12.10;;;14.40;99.90;;;;;;7367015;19;20093;-68
2024/03/14 09:17:18;;;;;;;13.40;11.70;;;14.20;99.90;;;;;;7374185;19;20026;-64
2024/03/14 09:19:44;;;;;;;12.85;11.55;;;14.20;99.90;;;;;;7384100;19;20341;-66
2024/03/14 09:22:10;;;;;;;14.80;12.35;;;14.10;99.90;;;;;;7387434;19;20409;-66
2024/03/14 09:24:37;;;;;;;13.32;12.10;;;14.10;99.90;;;;;;7387768;19;20396;-65
2024/03/14 09:27:05;;;;;;;13.00;11.68;;;14.10;99.90;;;;;;7383554;19;20011;-67
2024/03/14 09:29:32;;;;;;;14.02;11.07;;;14.50;99.90;;;;;;7366575;19;20018;-61
2024/03/14 09:31:59;;;;;;;12.45;11.15;;;14.50;99.90;;;;;;7370851;19;20019;-66
2024/03/14 09:34:26;;;;;;;14.63;12.38;;;14.70;99.90;;;;;;7374434;19;20045;-62
2024/03/14 09:36:53;;;;;;;11.48;10.43;;;15.00;99.90;;;;;;7365318;19;20490;-65
2024/03/14 09:39:23;;;;;;;13.20;11.93;;;15.20;99.90;;;;;;7365179;19;21183;-65
2024/03/14 09:41:49;;;;;;;12.13;10.77;;;15.40;99.90;;;;;;7362614;19;20517;-61
2024/03/14 09:44:18;;;;;;;11.55;10.20;;;15.70;99.90;;;;;;7372861;19;20524;-67
2024/03/14 09:46:55;;;;;;;12.07;10.48;;;15.80;99.90;;;;;;7378038;19;20041;-66
2024/03/14 09:49:24;;;;;;;10.85;9.75;;;16.00;99.90;;;;;;7367607;19;20451;-62
2024/03/14 09:51:53;;;;;;;10.48;9.38;;;16.40;99.90;;;;;;7370703;19;20010;-61
2024/03/14 09:54:25;;;;;;;11.10;9.80;;;16.80;99.90;;;;;;7366824;19;20586;-62
2024/03/14 09:56:52;;;;;;;10.43;9.38;;;17.40;99.90;;;;;;7364488;19;20086;-62
2024/03/14 09:59:18;;;;;;;23.60;21.10;;;17.70;99.90;;;;;;7352895;19;20019;-61
2024/03/14 10:01:46;;;;;;;9.48;8.45;;;18.00;99.90;;;;;;7364475;19;20022;-65
2024/03/14 10:04:12;;;;;;;9.30;8.27;;;18.60;99.90;;;;;;7370868;19;20026;-67
2024/03/14 10:06:40;;;;;;;10.98;8.98;;;18.90;99.90;;;;;;7383132;19;20037;-65
2024/03/14 10:09:11;;;;;;;9.32;7.68;;;19.20;99.90;;;;;;7386651;19;20110;-67
2024/03/14 10:11:38;;;;;;;8.80;7.90;;;19.20;99.90;;;;;;7373541;19;20086;-62
2024/03/14 10:14:17;;;;;;;9.85;8.48;;;19.30;99.90;;;;;;7380059;19;20026;-67
2024/03/14 10:16:44;;;;;;;8.55;7.63;;;19.00;99.90;;;;;;7387536;19;20018;-67
2024/03/14 10:19:11;;;;;;;9.70;7.80;;;18.60;99.90;;;;;;7387807;19;20098;-67
2024/03/14 10:21:37;;;;;;;9.80;7.28;;;18.50;99.90;;;;;;7388160;19;20006;-66
2024/03/14 10:24:09;;;;;;;9.70;7.35;;;18.30;99.90;;;;;;7389333;19;20018;-67
2024/03/14 10:26:39;;;;;;;8.63;7.07;;;18.00;99.90;;;;;;7386825;19;20031;-64
2024/03/14 10:29:09;;;;;;;9.73;7.95;;;17.70;99.90;;;;;;7380288;19;20018;-65
2024/03/14 10:31:41;;;;;;;8.38;7.40;;;17.50;99.90;;;;;;7373679;19;20050;-63
2024/03/14 10:34:08;;;;;;;7.88;7.07;;;17.30;99.90;;;;;;7379561;19;20022;-63
2024/03/14 10:36:41;;;;;;;9.00;8.10;;;16.90;99.90;;;;;;7371879;19;20049;-61
2024/03/14 10:39:16;;;;;;;8.77;7.22;;;16.90;99.90;;;;;;7381164;19;20038;-63
2024/03/14 10:41:48;;;;;;;9.85;7.63;;;16.90;99.90;;;;;;7385199;19;20352;-62
2024/03/14 10:44:16;;;;;;;8.55;7.13;;;17.20;99.90;;;;;;7366330;19;20058;-61
2024/03/14 10:46:49;;;;;;;8.48;7.30;;;17.30;99.90;;;;;;7354712;19;20368;-61
2024/03/14 10:49:20;;;;;;;8.45;6.75;;;17.40;99.90;;;;;;7363658;19;20038;-64
2024/03/14 10:51:52;;;;;;;10.05;7.20;;;17.30;99.90;;;;;;7366065;19;20022;-61
2024/03/14 10:54:23;;;;;;;;;;;18.00;99.90;;;;;;7357711;19;20022;-66
2024/03/14 10:56:50;;;;;;;9.23;6.95;;;18.20;99.90;;;;;;7376224;19;20379;-62
2024/03/14 10:59:20;;;;;;;9.40;7.22;;;18.50;99.90;;;;;;7364922;19;20383;-66
2024/03/14 11:01:54;;;;;;;8.98;6.78;;;18.60;99.90;;;;;;7369701;19;20010;-66
2024/03/14 11:04:20;;;;;;;7.40;5.70;;;18.70;99.90;;;;;;7376594;19;20082;-66
2024/03/14 11:06:49;;;;;;;7.07;6.32;;;19.40;99.90;;;;;;7361982;19;20064;-62
2024/03/14 11:09:26;;;;;;;8.77;5.78;;;19.70;99.90;;;;;;7367173;19;20022;-61
2024/03/14 11:11:57;;;;;;;8.20;6.35;;;19.30;99.90;;;;;;7372633;19;20113;-61
2024/03/14 11:14:37;;;;;;;7.05;6.35;;;19.40;99.90;;;;;;7370613;19;20023;-65
2024/03/14 11:17:07;;;;;;;8.63;5.55;;;19.20;99.90;;;;;;7388686;19;20037;-66
2024/03/14 11:19:39;;;;;;;8.60;5.57;;;19.90;99.90;;;;;;7376790;19;20022;-61
2024/03/14 11:22:06;;;;;;;8.15;5.85;;;20.80;99.90;;;;;;7366173;19;20398;-63
2024/03/14 11:24:33;;;;;;;6.60;5.80;;;21.50;99.90;;;;;;7366372;19;20048;-61
2024/03/14 11:27:04;;;;;;;7.60;6.03;;;21.50;99.90;;;;;;7370764;19;20022;-61
2024/03/14 11:29:33;;;;;;;7.65;5.63;;;21.20;99.90;;;;;;7386225;19;20052;-65
2024/03/14 11:32:18;;;;;;;6.57;5.25;;;20.80;99.90;;;;;;7376426;19;20584;-61
2024/03/14 11:34:47;;;;;;;11.00;6.25;;;19.70;99.90;;;;;;7371907;19;20033;-66
2024/03/14 11:37:14;;;;;;;40.60;36.33;;;19.00;99.90;;;;;;7379237;19;20517;-56
2024/03/14 11:39:48;;;;;;;20.05;17.42;;;18.70;99.90;;;;;;7387480;19;20344;-66
2024/03/14 11:42:16;;;;;;;7.30;6.00;;;18.50;99.90;;;;;;7372107;19;20015;-61
2024/03/14 11:44:45;;;;;;;9.63;6.80;;;18.00;99.90;;;;;;7371364;19;20717;-61
2024/03/14 11:47:14;;;;;;;8.13;6.63;;;17.90;99.90;;;;;;7376533;19;20018;-64
2024/03/14 11:49:43;;;;;;;7.75;6.05;;;18.20;99.90;;;;;;7367865;19;20019;-62
2024/03/14 11:52:14;;;;;;;7.50;6.25;;;18.90;99.90;;;;;;7371634;19;20018;-63
2024/03/14 11:54:41;;;;;;;;;;;19.50;99.90;;;;;;7379665;19;20014;-66
2024/03/14 11:57:08;;;;;;;6.35;5.68;;;19.90;99.90;;;;;;7373081;19;19938;-64
2024/03/14 11:59:39;;;;;;;7.90;5.53;;;20.30;99.90;;;;;;7375081;19;20023;-65
2024/03/14 12:02:06;;;;;;;7.38;5.43;;;21.00;99.90;;;;;;7371819;19;20111;-62
2024/03/14 12:04:32;;;;;;;7.95;5.30;;;21.10;99.90;;;;;;7366184;19;20074;-62
2024/03/14 12:07:03;;;;;;;6.13;5.22;;;21.60;99.90;;;;;;7363477;19;20062;-62
2024/03/14 12:09:33;;;;;;;;;;;21.80;99.90;;;;;;7369580;19;20022;-62
2024/03/14 12:12:00;;;;;;;6.45;4.68;;;22.20;99.30;;;;;;7366322;19;19918;-62
2024/03/14 12:14:28;;;;;;;9.45;5.43;;;22.70;99.90;;;;;;7366733;19;20024;-62
2024/03/14 12:16:54;;;;;;;7.05;5.10;;;22.80;98.30;;;;;;7369446;19;20018;-65
2024/03/14 12:19:21;;;;;;;6.07;4.78;;;22.80;98.10;;;;;;7369052;19;20129;-66
2024/03/14 12:21:49;;;;;;;6.03;5.13;;;23.10;97.80;;;;;;7370282;19;20773;-66
2024/03/14 12:24:15;;;;;;;5.18;4.68;;;22.70;96.80;;;;;;7371676;19;20053;-66
2024/03/14 12:26:44;;;;;;;6.38;5.20;;;23.10;97.30;;;;;;7362867;19;20041;-61
2024/03/14 12:29:16;;;;;;;6.82;5.10;;;23.40;96.30;;;;;;7366839;19;20026;-61
2024/03/14 12:31:46;;;;;;;5.82;4.72;;;23.20;95.20;;;;;;7363163;19;20015;-66
2024/03/14 12:34:19;;;;;;;6.07;5.40;;;23.40;95.30;;;;;;7370304;19;20019;-66
2024/03/14 12:36:47;;;;;;;5.18;4.68;;;23.60;95.10;;;;;;7366053;19;20644;-67
2024/03/14 12:39:15;;;;;;;5.82;5.22;;;23.50;95.00;;;;;;7367734;19;20022;-67